sensor_id;sensor_type;location;lat;lon;timestamp;temperature;humidity
19892;DHT22;10108;50.142;8.724;2023-07-13T00:00:38;21.20;95.50
19892;DHT22;10108;50.142;8.724;2023-07-13T00:03:04;21.20;95.30
19892;DHT22;10108;50.142;8.724;2023-07-13T00:05:30;21.20;95.60
19892;DHT22;10108;50.142;8.724;2023-07-13T00:07:57;21.20;95.80
19892;DHT22;10108;50.142;8.724;2023-07-13T00:10:24;21.20;95.50
19892;DHT22;10108;50.142;8.724;2023-07-13T00:12:50;21.30;95.50
19892;DHT22;10108;50.142;8.724;2023-07-13T00:15:19;21.30;95.30
19892;DHT22;10108;50.142;8.724;2023-07-13T00:17:57;21.30;95.50
19892;DHT22;10108;50.142;8.724;2023-07-13T00:20:24;21.40;95.40
19892;DHT22;10108;50.142;8.724;2023-07-13T00:22:52;21.40;95.50
19892;DHT22;10108;50.142;8.724;2023-07-13T00:25:22;21.40;95.30
19892;DHT22;10108;50.142;8.724;2023-07-13T00:27:51;21.50;95.30
19892;DHT22;10108;50.142;8.724;2023-07-13T00:30:17;21.50;95.30
19892;DHT22;10108;50.142;8.724;2023-07-13T00:32:44;21.50;94.90
19892;DHT22;10108;50.142;8.724;2023-07-13T00:35:12;21.50;94.90
19892;DHT22;10108;50.142;8.724;2023-07-13T00:37:39;21.50;94.90
19892;DHT22;10108;50.142;8.724;2023-07-13T00:40:05;21.50;94.70
19892;DHT22;10108;50.142;8.724;2023-07-13T00:42:32;21.50;94.60
19892;DHT22;10108;50.142;8.724;2023-07-13T00:46:02;21.40;94.20
19892;DHT22;10108;50.142;8.724;2023-07-13T00:47:52;21.40;94.00
19892;DHT22;10108;50.142;8.724;2023-07-13T00:50:21;21.50;94.00
19892;DHT22;10108;50.142;8.724;2023-07-13T00:52:52;21.40;93.70
19892;DHT22;10108;50.142;8.724;2023-07-13T00:55:21;21.40;94.00
19892;DHT22;10108;50.142;8.724;2023-07-13T00:57:48;21.40;93.60
19892;DHT22;10108;50.142;8.724;2023-07-13T01:00:15;21.40;93.60
19892;DHT22;10108;50.142;8.724;2023-07-13T01:02:45;21.40;93.60
19892;DHT22;10108;50.142;8.724;2023-07-13T01:05:18;21.40;93.80
19892;DHT22;10108;50.142;8.724;2023-07-13T01:07:45;21.40;93.70
19892;DHT22;10108;50.142;8.724;2023-07-13T01:10:12;21.40;93.80
19892;DHT22;10108;50.142;8.724;2023-07-13T01:12:39;21.30;93.70
19892;DHT22;10108;50.142;8.724;2023-07-13T01:15:42;21.30;93.60
19892;DHT22;10108;50.142;8.724;2023-07-13T01:18:18;21.20;93.50
19892;DHT22;10108;50.142;8.724;2023-07-13T01:23:20;21.20;93.70
19892;DHT22;10108;50.142;8.724;2023-07-13T01:25:48;21.20;93.70
19892;DHT22;10108;50.142;8.724;2023-07-13T01:28:14;21.20;93.70
19892;DHT22;10108;50.142;8.724;2023-07-13T01:30:43;21.20;93.70
19892;DHT22;10108;50.142;8.724;2023-07-13T01:33:16;21.20;94.00
19892;DHT22;10108;50.142;8.724;2023-07-13T01:35:44;21.20;94.10
19892;DHT22;10108;50.142;8.724;2023-07-13T01:38:11;21.20;93.90
19892;DHT22;10108;50.142;8.724;2023-07-13T01:40:38;21.20;94.20
19892;DHT22;10108;50.142;8.724;2023-07-13T01:43:04;21.20;94.20
19892;DHT22;10108;50.142;8.724;2023-07-13T01:45:30;21.10;94.10
19892;DHT22;10108;50.142;8.724;2023-07-13T01:47:57;21.20;94.10
19892;DHT22;10108;50.142;8.724;2023-07-13T01:50:24;21.10;94.20
19892;DHT22;10108;50.142;8.724;2023-07-13T01:52:50;21.10;94.20
19892;DHT22;10108;50.142;8.724;2023-07-13T01:55:17;21.10;94.10
19892;DHT22;10108;50.142;8.724;2023-07-13T01:57:43;21.10;94.20
19892;DHT22;10108;50.142;8.724;2023-07-13T02:00:11;21.10;94.20
19892;DHT22;10108;50.142;8.724;2023-07-13T02:02:43;21.00;94.30
19892;DHT22;10108;50.142;8.724;2023-07-13T02:05:11;21.00;94.20
19892;DHT22;10108;50.142;8.724;2023-07-13T02:07:38;21.00;94.20
19892;DHT22;10108;50.142;8.724;2023-07-13T02:10:05;20.90;94.10
19892;DHT22;10108;50.142;8.724;2023-07-13T02:12:32;20.90;94.10
19892;DHT22;10108;50.142;8.724;2023-07-13T02:14:58;20.90;93.90
19892;DHT22;10108;50.142;8.724;2023-07-13T02:17:26;20.90;93.90
19892;DHT22;10108;50.142;8.724;2023-07-13T02:19:52;20.80;94.10
19892;DHT22;10108;50.142;8.724;2023-07-13T02:22:19;20.80;94.10
19892;DHT22;10108;50.142;8.724;2023-07-13T02:24:45;20.70;94.20
19892;DHT22;10108;50.142;8.724;2023-07-13T02:27:11;20.70;94.20
19892;DHT22;10108;50.142;8.724;2023-07-13T02:29:37;20.70;94.00
19892;DHT22;10108;50.142;8.724;2023-07-13T02:32:03;20.60;94.10
19892;DHT22;10108;50.142;8.724;2023-07-13T02:34:29;20.70;94.50
19892;DHT22;10108;50.142;8.724;2023-07-13T02:36:56;20.60;94.70
19892;DHT22;10108;50.142;8.724;2023-07-13T02:39:22;20.60;94.40
19892;DHT22;10108;50.142;8.724;2023-07-13T02:41:48;20.60;94.20
19892;DHT22;10108;50.142;8.724;2023-07-13T02:44:14;20.70;94.20
19892;DHT22;10108;50.142;8.724;2023-07-13T02:46:41;20.60;94.30
19892;DHT22;10108;50.142;8.724;2023-07-13T02:49:08;20.60;94.50
19892;DHT22;10108;50.142;8.724;2023-07-13T02:51:34;20.50;94.40
19892;DHT22;10108;50.142;8.724;2023-07-13T02:54:02;20.50;94.70
19892;DHT22;10108;50.142;8.724;2023-07-13T02:56:30;20.50;94.70
19892;DHT22;10108;50.142;8.724;2023-07-13T02:58:57;20.40;94.80
19892;DHT22;10108;50.142;8.724;2023-07-13T03:01:24;20.40;94.70
19892;DHT22;10108;50.142;8.724;2023-07-13T03:03:51;20.40;94.80
19892;DHT22;10108;50.142;8.724;2023-07-13T03:06:19;20.40;94.80
19892;DHT22;10108;50.142;8.724;2023-07-13T03:08:49;20.40;94.80
19892;DHT22;10108;50.142;8.724;2023-07-13T03:11:20;20.40;95.00
19892;DHT22;10108;50.142;8.724;2023-07-13T03:14:09;20.40;95.30
19892;DHT22;10108;50.142;8.724;2023-07-13T03:16:37;20.40;95.30
19892;DHT22;10108;50.142;8.724;2023-07-13T03:19:03;20.30;95.00
19892;DHT22;10108;50.142;8.724;2023-07-13T03:21:30;20.30;95.40
19892;DHT22;10108;50.142;8.724;2023-07-13T03:23:56;20.30;95.30
19892;DHT22;10108;50.142;8.724;2023-07-13T03:26:22;20.20;95.20
19892;DHT22;10108;50.142;8.724;2023-07-13T03:28:48;20.20;95.40
19892;DHT22;10108;50.142;8.724;2023-07-13T03:31:24;20.20;95.50
19892;DHT22;10108;50.142;8.724;2023-07-13T03:33:51;20.20;95.50
19892;DHT22;10108;50.142;8.724;2023-07-13T03:36:24;20.20;95.40
19892;DHT22;10108;50.142;8.724;2023-07-13T03:38:55;20.10;95.60
19892;DHT22;10108;50.142;8.724;2023-07-13T03:41:26;20.10;95.50
19892;DHT22;10108;50.142;8.724;2023-07-13T03:43:53;20.10;95.80
19892;DHT22;10108;50.142;8.724;2023-07-13T03:46:21;20.10;95.40
19892;DHT22;10108;50.142;8.724;2023-07-13T03:48:48;20.00;94.50
19892;DHT22;10108;50.142;8.724;2023-07-13T03:51:15;20.00;94.50
19892;DHT22;10108;50.142;8.724;2023-07-13T03:53:44;20.00;94.00
19892;DHT22;10108;50.142;8.724;2023-07-13T03:56:12;20.10;93.90
19892;DHT22;10108;50.142;8.724;2023-07-13T03:58:42;20.00;93.20
19892;DHT22;10108;50.142;8.724;2023-07-13T04:01:16;20.10;93.20
19892;DHT22;10108;50.142;8.724;2023-07-13T04:03:42;20.10;93.20
19892;DHT22;10108;50.142;8.724;2023-07-13T04:06:18;20.10;93.30
19892;DHT22;10108;50.142;8.724;2023-07-13T04:08:49;20.20;94.10
19892;DHT22;10108;50.142;8.724;2023-07-13T04:11:17;20.20;93.60
19892;DHT22;10108;50.142;8.724;2023-07-13T04:13:45;20.20;93.40
19892;DHT22;10108;50.142;8.724;2023-07-13T04:16:12;20.20;93.30
19892;DHT22;10108;50.142;8.724;2023-07-13T04:18:39;20.30;93.70
19892;DHT22;10108;50.142;8.724;2023-07-13T04:21:05;20.30;93.30
19892;DHT22;10108;50.142;8.724;2023-07-13T04:23:31;20.20;93.20
19892;DHT22;10108;50.142;8.724;2023-07-13T04:25:57;20.30;93.90
19892;DHT22;10108;50.142;8.724;2023-07-13T04:28:24;20.30;93.70
19892;DHT22;10108;50.142;8.724;2023-07-13T04:30:51;20.30;94.20
19892;DHT22;10108;50.142;8.724;2023-07-13T04:33:17;20.30;94.60
19892;DHT22;10108;50.142;8.724;2023-07-13T04:35:44;20.30;94.40
19892;DHT22;10108;50.142;8.724;2023-07-13T04:38:12;20.30;95.00
19892;DHT22;10108;50.142;8.724;2023-07-13T04:40:38;20.30;94.20
19892;DHT22;10108;50.142;8.724;2023-07-13T04:43:04;20.30;94.20
19892;DHT22;10108;50.142;8.724;2023-07-13T04:45:30;20.30;94.00
19892;DHT22;10108;50.142;8.724;2023-07-13T04:47:57;20.30;94.30
19892;DHT22;10108;50.142;8.724;2023-07-13T04:50:23;20.40;94.20
19892;DHT22;10108;50.142;8.724;2023-07-13T04:52:50;20.40;93.90
19892;DHT22;10108;50.142;8.724;2023-07-13T04:55:17;20.40;94.80
19892;DHT22;10108;50.142;8.724;2023-07-13T04:57:43;20.40;94.70
19892;DHT22;10108;50.142;8.724;2023-07-13T05:00:10;20.40;94.40
19892;DHT22;10108;50.142;8.724;2023-07-13T05:02:38;20.40;94.10
19892;DHT22;10108;50.142;8.724;2023-07-13T05:05:05;20.50;93.90
19892;DHT22;10108;50.142;8.724;2023-07-13T05:07:32;20.40;93.90
19892;DHT22;10108;50.142;8.724;2023-07-13T05:09:59;20.50;93.70
19892;DHT22;10108;50.142;8.724;2023-07-13T05:12:26;20.50;93.40
19892;DHT22;10108;50.142;8.724;2023-07-13T05:14:53;20.50;93.50
19892;DHT22;10108;50.142;8.724;2023-07-13T05:17:19;20.50;93.20
19892;DHT22;10108;50.142;8.724;2023-07-13T05:19:45;20.50;93.00
19892;DHT22;10108;50.142;8.724;2023-07-13T05:22:11;20.50;93.90
19892;DHT22;10108;50.142;8.724;2023-07-13T05:24:38;20.50;95.50
19892;DHT22;10108;50.142;8.724;2023-07-13T05:27:04;20.60;95.10
19892;DHT22;10108;50.142;8.724;2023-07-13T05:29:30;20.60;94.60
19892;DHT22;10108;50.142;8.724;2023-07-13T05:31:56;20.70;94.20
19892;DHT22;10108;50.142;8.724;2023-07-13T05:34:23;20.70;92.80
19892;DHT22;10108;50.142;8.724;2023-07-13T05:36:49;20.70;92.90
19892;DHT22;10108;50.142;8.724;2023-07-13T05:39:16;20.80;92.60
19892;DHT22;10108;50.142;8.724;2023-07-13T05:41:42;20.80;92.40
19892;DHT22;10108;50.142;8.724;2023-07-13T05:44:08;20.80;92.20
19892;DHT22;10108;50.142;8.724;2023-07-13T05:46:34;20.90;92.50
19892;DHT22;10108;50.142;8.724;2023-07-13T05:49:01;20.90;94.60
19892;DHT22;10108;50.142;8.724;2023-07-13T05:51:27;21.00;93.80
19892;DHT22;10108;50.142;8.724;2023-07-13T05:53:53;21.00;94.40
19892;DHT22;10108;50.142;8.724;2023-07-13T05:56:19;21.10;93.70
19892;DHT22;10108;50.142;8.724;2023-07-13T05:58:47;21.10;92.70
19892;DHT22;10108;50.142;8.724;2023-07-13T06:01:15;21.20;95.50
19892;DHT22;10108;50.142;8.724;2023-07-13T06:03:41;21.20;94.70
19892;DHT22;10108;50.142;8.724;2023-07-13T06:06:09;21.20;94.20
19892;DHT22;10108;50.142;8.724;2023-07-13T06:08:36;21.30;93.80
19892;DHT22;10108;50.142;8.724;2023-07-13T06:11:16;21.30;93.30
19892;DHT22;10108;50.142;8.724;2023-07-13T06:13:43;21.30;92.50
19892;DHT22;10108;50.142;8.724;2023-07-13T06:16:10;21.30;94.10
19892;DHT22;10108;50.142;8.724;2023-07-13T06:18:37;21.30;98.10
19892;DHT22;10108;50.142;8.724;2023-07-13T06:21:11;21.30;95.90
19892;DHT22;10108;50.142;8.724;2023-07-13T06:23:38;21.30;93.90
19892;DHT22;10108;50.142;8.724;2023-07-13T06:26:05;21.20;93.50
19892;DHT22;10108;50.142;8.724;2023-07-13T06:28:32;21.30;93.30
19892;DHT22;10108;50.142;8.724;2023-07-13T06:30:59;21.20;92.70
19892;DHT22;10108;50.142;8.724;2023-07-13T06:33:25;21.30;93.50
19892;DHT22;10108;50.142;8.724;2023-07-13T06:35:52;21.20;94.00
19892;DHT22;10108;50.142;8.724;2023-07-13T06:38:18;21.20;94.60
19892;DHT22;10108;50.142;8.724;2023-07-13T06:40:44;21.20;93.80
19892;DHT22;10108;50.142;8.724;2023-07-13T06:43:11;21.30;93.80
19892;DHT22;10108;50.142;8.724;2023-07-13T06:45:43;21.30;94.40
19892;DHT22;10108;50.142;8.724;2023-07-13T06:48:12;21.30;93.90
19892;DHT22;10108;50.142;8.724;2023-07-13T06:50:38;21.20;92.80
19892;DHT22;10108;50.142;8.724;2023-07-13T06:53:04;21.30;93.20
19892;DHT22;10108;50.142;8.724;2023-07-13T06:55:30;21.30;95.00
19892;DHT22;10108;50.142;8.724;2023-07-13T06:57:57;21.30;94.40
19892;DHT22;10108;50.142;8.724;2023-07-13T07:00:23;21.30;94.60
19892;DHT22;10108;50.142;8.724;2023-07-13T07:02:49;21.30;97.00
19892;DHT22;10108;50.142;8.724;2023-07-13T07:05:15;21.30;96.30
19892;DHT22;10108;50.142;8.724;2023-07-13T07:07:41;21.30;95.40
19892;DHT22;10108;50.142;8.724;2023-07-13T07:10:08;21.30;93.80
19892;DHT22;10108;50.142;8.724;2023-07-13T07:12:34;21.30;94.10
19892;DHT22;10108;50.142;8.724;2023-07-13T07:15:00;21.40;95.40
19892;DHT22;10108;50.142;8.724;2023-07-13T07:17:26;21.40;99.90
19892;DHT22;10108;50.142;8.724;2023-07-13T07:19:53;21.40;99.20
19892;DHT22;10108;50.142;8.724;2023-07-13T07:22:22;21.40;96.80
19892;DHT22;10108;50.142;8.724;2023-07-13T07:24:48;21.40;98.70
19892;DHT22;10108;50.142;8.724;2023-07-13T07:27:14;21.40;98.20
19892;DHT22;10108;50.142;8.724;2023-07-13T07:29:40;21.40;98.50
19892;DHT22;10108;50.142;8.724;2023-07-13T07:32:06;21.50;97.50
19892;DHT22;10108;50.142;8.724;2023-07-13T07:34:32;21.40;96.50
19892;DHT22;10108;50.142;8.724;2023-07-13T07:37:00;21.40;93.80
19892;DHT22;10108;50.142;8.724;2023-07-13T07:39:29;21.50;96.50
19892;DHT22;10108;50.142;8.724;2023-07-13T07:41:56;21.50;96.60
19892;DHT22;10108;50.142;8.724;2023-07-13T07:44:22;21.50;96.90
19892;DHT22;10108;50.142;8.724;2023-07-13T07:46:48;21.60;97.60
19892;DHT22;10108;50.142;8.724;2023-07-13T07:49:15;21.60;97.70
19892;DHT22;10108;50.142;8.724;2023-07-13T07:51:41;21.60;95.70
19892;DHT22;10108;50.142;8.724;2023-07-13T07:54:07;21.60;94.50
19892;DHT22;10108;50.142;8.724;2023-07-13T07:56:33;21.60;94.60
19892;DHT22;10108;50.142;8.724;2023-07-13T07:58:59;21.70;97.50
19892;DHT22;10108;50.142;8.724;2023-07-13T08:01:25;21.70;96.90
19892;DHT22;10108;50.142;8.724;2023-07-13T08:03:52;21.70;93.90
19892;DHT22;10108;50.142;8.724;2023-07-13T08:06:18;21.70;93.90
19892;DHT22;10108;50.142;8.724;2023-07-13T08:08:46;21.70;92.20
19892;DHT22;10108;50.142;8.724;2023-07-13T08:11:12;21.80;94.90
19892;DHT22;10108;50.142;8.724;2023-07-13T08:13:38;21.80;96.70
19892;DHT22;10108;50.142;8.724;2023-07-13T08:16:05;21.80;97.30
19892;DHT22;10108;50.142;8.724;2023-07-13T08:18:31;21.90;93.30
19892;DHT22;10108;50.142;8.724;2023-07-13T08:20:58;21.80;91.80
19892;DHT22;10108;50.142;8.724;2023-07-13T08:23:25;21.80;91.80
19892;DHT22;10108;50.142;8.724;2023-07-13T08:25:54;21.90;91.80
19892;DHT22;10108;50.142;8.724;2023-07-13T08:28:21;21.90;93.60
19892;DHT22;10108;50.142;8.724;2023-07-13T08:30:48;21.90;94.00
19892;DHT22;10108;50.142;8.724;2023-07-13T08:33:18;21.90;93.90
19892;DHT22;10108;50.142;8.724;2023-07-13T08:35:48;21.90;95.50
19892;DHT22;10108;50.142;8.724;2023-07-13T08:38:15;21.90;94.70
19892;DHT22;10108;50.142;8.724;2023-07-13T08:40:43;22.00;94.60
19892;DHT22;10108;50.142;8.724;2023-07-13T08:43:15;22.00;91.90
19892;DHT22;10108;50.142;8.724;2023-07-13T08:45:46;22.00;92.20
19892;DHT22;10108;50.142;8.724;2023-07-13T08:48:20;22.00;94.90
19892;DHT22;10108;50.142;8.724;2023-07-13T08:50:58;22.10;93.90
19892;DHT22;10108;50.142;8.724;2023-07-13T08:53:38;22.10;94.70
19892;DHT22;10108;50.142;8.724;2023-07-13T08:56:11;22.10;96.90
19892;DHT22;10108;50.142;8.724;2023-07-13T08:58:39;22.20;94.00
19892;DHT22;10108;50.142;8.724;2023-07-13T09:01:17;22.20;94.80
19892;DHT22;10108;50.142;8.724;2023-07-13T09:07:00;22.20;94.40
19892;DHT22;10108;50.142;8.724;2023-07-13T09:12:17;22.20;94.20
19892;DHT22;10108;50.142;8.724;2023-07-13T09:14:48;22.30;99.60
19892;DHT22;10108;50.142;8.724;2023-07-13T09:17:24;22.30;99.60
19892;DHT22;10108;50.142;8.724;2023-07-13T09:20:41;22.30;96.80
19892;DHT22;10108;50.142;8.724;2023-07-13T09:22:41;22.30;92.30
19892;DHT22;10108;50.142;8.724;2023-07-13T09:25:26;22.30;94.50
19892;DHT22;10108;50.142;8.724;2023-07-13T09:28:04;22.30;97.70
19892;DHT22;10108;50.142;8.724;2023-07-13T09:30:56;22.30;95.10
19892;DHT22;10108;50.142;8.724;2023-07-13T09:33:24;22.40;92.90
19892;DHT22;10108;50.142;8.724;2023-07-13T09:36:25;22.40;92.30
19892;DHT22;10108;50.142;8.724;2023-07-13T09:42:07;22.50;97.10
19892;DHT22;10108;50.142;8.724;2023-07-13T09:47:24;22.50;91.90
19892;DHT22;10108;50.142;8.724;2023-07-13T09:50:08;22.60;94.70
19892;DHT22;10108;50.142;8.724;2023-07-13T09:52:50;22.60;94.60
19892;DHT22;10108;50.142;8.724;2023-07-13T09:55:25;22.60;91.60
19892;DHT22;10108;50.142;8.724;2023-07-13T09:57:51;22.70;98.40
19892;DHT22;10108;50.142;8.724;2023-07-13T10:00:24;22.70;92.20
19892;DHT22;10108;50.142;8.724;2023-07-13T10:03:01;22.70;91.70
19892;DHT22;10108;50.142;8.724;2023-07-13T10:05:38;22.70;95.60
19892;DHT22;10108;50.142;8.724;2023-07-13T10:08:04;22.80;90.50
19892;DHT22;10108;50.142;8.724;2023-07-13T10:10:33;22.80;93.40
19892;DHT22;10108;50.142;8.724;2023-07-13T10:13:02;22.80;89.60
19892;DHT22;10108;50.142;8.724;2023-07-13T10:15:31;22.80;89.30
19892;DHT22;10108;50.142;8.724;2023-07-13T10:17:58;22.90;86.60
19892;DHT22;10108;50.142;8.724;2023-07-13T10:20:25;22.90;94.60
19892;DHT22;10108;50.142;8.724;2023-07-13T10:23:10;23.00;93.00
19892;DHT22;10108;50.142;8.724;2023-07-13T10:25:43;23.00;94.10
19892;DHT22;10108;50.142;8.724;2023-07-13T10:28:46;23.10;95.90
19892;DHT22;10108;50.142;8.724;2023-07-13T10:31:16;23.10;99.90
19892;DHT22;10108;50.142;8.724;2023-07-13T10:33:42;23.00;97.30
19892;DHT22;10108;50.142;8.724;2023-07-13T10:36:20;23.00;94.60
19892;DHT22;10108;50.142;8.724;2023-07-13T10:38:50;23.10;93.40
19892;DHT22;10108;50.142;8.724;2023-07-13T10:41:22;23.10;93.40
19892;DHT22;10108;50.142;8.724;2023-07-13T10:43:52;23.10;98.20
19892;DHT22;10108;50.142;8.724;2023-07-13T10:46:22;23.20;99.90
19892;DHT22;10108;50.142;8.724;2023-07-13T10:48:51;23.10;92.20
19892;DHT22;10108;50.142;8.724;2023-07-13T10:51:18;23.10;96.50
19892;DHT22;10108;50.142;8.724;2023-07-13T10:53:47;23.20;92.80
19892;DHT22;10108;50.142;8.724;2023-07-13T10:56:24;23.20;95.60
19892;DHT22;10108;50.142;8.724;2023-07-13T11:04:44;23.50;94.60
19892;DHT22;10108;50.142;8.724;2023-07-13T11:07:22;23.50;93.10
19892;DHT22;10108;50.142;8.724;2023-07-13T11:10:04;23.50;93.10
19892;DHT22;10108;50.142;8.724;2023-07-13T11:13:00;23.50;91.70
19892;DHT22;10108;50.142;8.724;2023-07-13T11:15:32;23.40;88.60
19892;DHT22;10108;50.142;8.724;2023-07-13T11:18:03;23.40;90.40
19892;DHT22;10108;50.142;8.724;2023-07-13T11:20:37;23.30;92.80
19892;DHT22;10108;50.142;8.724;2023-07-13T11:25:39;23.20;94.60
19892;DHT22;10108;50.142;8.724;2023-07-13T11:30:39;23.10;91.60
19892;DHT22;10108;50.142;8.724;2023-07-13T11:35:37;23.10;97.30
19892;DHT22;10108;50.142;8.724;2023-07-13T11:38:14;23.20;92.20
19892;DHT22;10108;50.142;8.724;2023-07-13T11:40:43;23.20;98.40
19892;DHT22;10108;50.142;8.724;2023-07-13T11:43:13;23.30;92.30
19892;DHT22;10108;50.142;8.724;2023-07-13T11:45:44;23.50;96.50
19892;DHT22;10108;50.142;8.724;2023-07-13T11:48:39;23.40;99.90
19892;DHT22;10108;50.142;8.724;2023-07-13T11:51:33;23.50;93.20
19892;DHT22;10108;50.142;8.724;2023-07-13T11:54:04;23.50;94.40
19892;DHT22;10108;50.142;8.724;2023-07-13T11:56:31;23.50;98.20
19892;DHT22;10108;50.142;8.724;2023-07-13T11:59:04;23.60;99.90
19892;DHT22;10108;50.142;8.724;2023-07-13T12:01:31;23.60;97.00
19892;DHT22;10108;50.142;8.724;2023-07-13T12:04:22;23.60;99.50
19892;DHT22;10108;50.142;8.724;2023-07-13T12:06:56;23.60;95.90
19892;DHT22;10108;50.142;8.724;2023-07-13T12:09:22;23.60;92.60
19892;DHT22;10108;50.142;8.724;2023-07-13T12:11:51;23.70;88.20
19892;DHT22;10108;50.142;8.724;2023-07-13T12:14:18;23.80;94.20
19892;DHT22;10108;50.142;8.724;2023-07-13T12:16:46;23.80;94.90
19892;DHT22;10108;50.142;8.724;2023-07-13T12:19:18;23.90;92.30
19892;DHT22;10108;50.142;8.724;2023-07-13T12:21:46;23.80;91.70
19892;DHT22;10108;50.142;8.724;2023-07-13T12:24:16;23.80;92.10
19892;DHT22;10108;50.142;8.724;2023-07-13T12:26:43;23.80;90.60
19892;DHT22;10108;50.142;8.724;2023-07-13T12:29:16;23.80;98.10
19892;DHT22;10108;50.142;8.724;2023-07-13T12:31:47;23.80;95.60
19892;DHT22;10108;50.142;8.724;2023-07-13T12:34:15;23.80;91.10
19892;DHT22;10108;50.142;8.724;2023-07-13T12:37:11;23.80;89.00
19892;DHT22;10108;50.142;8.724;2023-07-13T12:39:45;23.80;97.90
19892;DHT22;10108;50.142;8.724;2023-07-13T12:42:21;23.80;94.20
19892;DHT22;10108;50.142;8.724;2023-07-13T12:44:57;23.80;90.10
19892;DHT22;10108;50.142;8.724;2023-07-13T12:47:24;23.80;95.70
19892;DHT22;10108;50.142;8.724;2023-07-13T12:49:56;23.80;93.40
19892;DHT22;10108;50.142;8.724;2023-07-13T12:52:29;23.80;93.00
19892;DHT22;10108;50.142;8.724;2023-07-13T12:55:05;23.90;97.80
19892;DHT22;10108;50.142;8.724;2023-07-13T12:58:03;23.90;96.30
19892;DHT22;10108;50.142;8.724;2023-07-13T13:00:35;23.80;98.50
19892;DHT22;10108;50.142;8.724;2023-07-13T13:03:12;23.80;92.10
19892;DHT22;10108;50.142;8.724;2023-07-13T13:05:45;23.80;93.10
19892;DHT22;10108;50.142;8.724;2023-07-13T13:08:11;23.80;95.60
19892;DHT22;10108;50.142;8.724;2023-07-13T13:10:38;23.80;94.10
19892;DHT22;10108;50.142;8.724;2023-07-13T13:13:04;23.80;90.40
19892;DHT22;10108;50.142;8.724;2023-07-13T13:15:32;23.90;93.90
19892;DHT22;10108;50.142;8.724;2023-07-13T13:17:59;23.90;92.90
19892;DHT22;10108;50.142;8.724;2023-07-13T13:20:25;23.80;91.70
19892;DHT22;10108;50.142;8.724;2023-07-13T13:22:55;23.80;91.50
19892;DHT22;10108;50.142;8.724;2023-07-13T13:25:22;23.80;91.70
19892;DHT22;10108;50.142;8.724;2023-07-13T13:27:51;23.70;92.20
19892;DHT22;10108;50.142;8.724;2023-07-13T13:30:18;23.80;89.50
19892;DHT22;10108;50.142;8.724;2023-07-13T13:32:46;23.80;93.40
19892;DHT22;10108;50.142;8.724;2023-07-13T13:35:14;23.70;91.20
19892;DHT22;10108;50.142;8.724;2023-07-13T13:37:41;23.80;93.40
19892;DHT22;10108;50.142;8.724;2023-07-13T13:40:19;23.80;95.90
19892;DHT22;10108;50.142;8.724;2023-07-13T13:42:46;23.80;95.80
19892;DHT22;10108;50.142;8.724;2023-07-13T13:45:12;23.90;90.20
19892;DHT22;10108;50.142;8.724;2023-07-13T13:47:40;24.00;89.30
19892;DHT22;10108;50.142;8.724;2023-07-13T13:50:20;24.10;94.80
19892;DHT22;10108;50.142;8.724;2023-07-13T13:52:46;24.10;98.30
19892;DHT22;10108;50.142;8.724;2023-07-13T13:55:18;24.10;93.10
19892;DHT22;10108;50.142;8.724;2023-07-13T13:57:45;24.10;90.20
19892;DHT22;10108;50.142;8.724;2023-07-13T14:00:13;24.20;89.50
19892;DHT22;10108;50.142;8.724;2023-07-13T14:02:45;24.20;93.10
19892;DHT22;10108;50.142;8.724;2023-07-13T14:05:25;24.30;88.80
19892;DHT22;10108;50.142;8.724;2023-07-13T14:07:56;24.30;90.50
19892;DHT22;10108;50.142;8.724;2023-07-13T14:10:26;24.40;90.80
19892;DHT22;10108;50.142;8.724;2023-07-13T14:12:54;24.40;94.20
19892;DHT22;10108;50.142;8.724;2023-07-13T14:15:27;24.40;91.70
19892;DHT22;10108;50.142;8.724;2023-07-13T14:17:54;24.40;87.70
19892;DHT22;10108;50.142;8.724;2023-07-13T14:20:22;24.40;85.00
19892;DHT22;10108;50.142;8.724;2023-07-13T14:22:51;24.40;82.90
19892;DHT22;10108;50.142;8.724;2023-07-13T14:25:18;24.40;93.60
19892;DHT22;10108;50.142;8.724;2023-07-13T14:27:46;24.40;93.90
19892;DHT22;10108;50.142;8.724;2023-07-13T14:30:19;24.30;92.10
19892;DHT22;10108;50.142;8.724;2023-07-13T14:32:46;24.30;96.40
19892;DHT22;10108;50.142;8.724;2023-07-13T14:35:13;24.10;97.30
19892;DHT22;10108;50.142;8.724;2023-07-13T14:37:40;24.10;99.50
19892;DHT22;10108;50.142;8.724;2023-07-13T14:40:17;23.90;92.60
19892;DHT22;10108;50.142;8.724;2023-07-13T14:42:43;23.90;91.40
19892;DHT22;10108;50.142;8.724;2023-07-13T14:45:18;23.80;93.30
19892;DHT22;10108;50.142;8.724;2023-07-13T14:47:45;23.80;92.20
19892;DHT22;10108;50.142;8.724;2023-07-13T14:50:24;23.80;92.70
19892;DHT22;10108;50.142;8.724;2023-07-13T14:52:52;23.80;91.40
19892;DHT22;10108;50.142;8.724;2023-07-13T14:55:19;23.80;93.50
19892;DHT22;10108;50.142;8.724;2023-07-13T14:57:45;23.80;93.50
19892;DHT22;10108;50.142;8.724;2023-07-13T15:00:19;23.90;96.00
19892;DHT22;10108;50.142;8.724;2023-07-13T15:02:54;23.90;96.30
19892;DHT22;10108;50.142;8.724;2023-07-13T15:05:24;23.90;97.40
19892;DHT22;10108;50.142;8.724;2023-07-13T15:07:52;23.90;97.00
19892;DHT22;10108;50.142;8.724;2023-07-13T15:10:22;24.00;99.00
19892;DHT22;10108;50.142;8.724;2023-07-13T15:12:51;24.00;95.50
19892;DHT22;10108;50.142;8.724;2023-07-13T15:15:17;24.10;93.30
19892;DHT22;10108;50.142;8.724;2023-07-13T15:17:45;24.20;91.10
19892;DHT22;10108;50.142;8.724;2023-07-13T15:20:25;24.40;90.50
19892;DHT22;10108;50.142;8.724;2023-07-13T15:22:52;24.30;90.20
19892;DHT22;10108;50.142;8.724;2023-07-13T15:25:23;24.40;93.00
19892;DHT22;10108;50.142;8.724;2023-07-13T15:27:51;24.30;95.00
19892;DHT22;10108;50.142;8.724;2023-07-13T15:30:18;24.30;92.20
19892;DHT22;10108;50.142;8.724;2023-07-13T15:32:45;24.30;95.00
19892;DHT22;10108;50.142;8.724;2023-07-13T15:35:16;24.30;95.90
19892;DHT22;10108;50.142;8.724;2023-07-13T15:37:42;24.30;95.40
19892;DHT22;10108;50.142;8.724;2023-07-13T15:40:10;24.20;91.20
19892;DHT22;10108;50.142;8.724;2023-07-13T15:42:37;24.20;89.50
19892;DHT22;10108;50.142;8.724;2023-07-13T15:45:23;24.20;92.50
19892;DHT22;10108;50.142;8.724;2023-07-13T15:47:50;24.10;92.30
19892;DHT22;10108;50.142;8.724;2023-07-13T15:50:19;24.20;98.40
19892;DHT22;10108;50.142;8.724;2023-07-13T15:52:52;24.10;92.50
19892;DHT22;10108;50.142;8.724;2023-07-13T15:55:18;24.10;95.10
19892;DHT22;10108;50.142;8.724;2023-07-13T15:57:48;24.10;93.20
19892;DHT22;10108;50.142;8.724;2023-07-13T16:00:18;24.00;93.80
19892;DHT22;10108;50.142;8.724;2023-07-13T16:02:47;24.00;90.60
19892;DHT22;10108;50.142;8.724;2023-07-13T16:05:14;24.00;89.30
19892;DHT22;10108;50.142;8.724;2023-07-13T16:07:46;23.90;89.50
19892;DHT22;10108;50.142;8.724;2023-07-13T16:10:22;24.00;90.70
19892;DHT22;10108;50.142;8.724;2023-07-13T16:12:50;23.90;94.60